createdAt,value
2022-10-06T00:00:18.356Z,13.97
2022-10-06T00:04:08.189Z,14.03
2022-10-06T00:07:50.890Z,13.54
2022-10-06T00:11:40.617Z,13.29
2022-10-06T00:15:29.530Z,13.78
2022-10-06T00:19:18.546Z,13.73
2022-10-06T00:23:07.427Z,13.78
2022-10-06T00:26:56.201Z,13.75
2022-10-06T00:30:34.920Z,13.68
2022-10-06T00:34:02.435Z,13.58
2022-10-06T00:37:51.285Z,13.59
2022-10-06T00:41:30.097Z,13.52
2022-10-06T00:45:17.584Z,13.50
2022-10-06T00:48:50.724Z,13.56
2022-10-06T00:52:04.160Z,13.50
2022-10-06T00:55:54.170Z,13.44
2022-10-06T00:59:43.006Z,13.36
2022-10-06T01:03:16.517Z,13.38
2022-10-06T01:07:06.969Z,13.38
2022-10-06T01:10:49.044Z,13.16
2022-10-06T01:14:06.699Z,12.79
2022-10-06T01:17:48.155Z,12.60
2022-10-06T01:21:00.406Z,12.56
2022-10-06T01:24:38.047Z,12.69
2022-10-06T01:28:18.270Z,12.72
2022-10-06T01:31:32.751Z,12.81
2022-10-06T01:35:17.880Z,12.88
2022-10-06T01:38:57.655Z,12.87
2022-10-06T01:42:40.462Z,12.84
2022-10-06T01:46:36.505Z,12.83
2022-10-06T01:50:25.488Z,12.89
2022-10-06T01:53:59.179Z,12.92
2022-10-06T01:57:36.416Z,12.93
2022-10-06T02:00:39.853Z,12.57
2022-10-06T02:04:28.695Z,12.81
2022-10-06T02:08:17.601Z,13.02
2022-10-06T02:11:59.221Z,13.06
2022-10-06T02:15:48.164Z,13.02
2022-10-06T02:19:35.696Z,13.01
2022-10-06T02:23:24.614Z,13.01
2022-10-06T02:26:57.897Z,13.07
2022-10-06T02:30:33.576Z,13.10
2022-10-06T02:33:58.969Z,13.17
2022-10-06T02:37:47.781Z,13.24
2022-10-06T02:41:28.214Z,13.38
2022-10-06T02:45:16.111Z,13.53
2022-10-06T02:48:57.615Z,13.71
2022-10-06T02:52:46.607Z,13.69
2022-10-06T02:56:15.443Z,13.75
2022-10-06T03:00:04.065Z,13.80
2022-10-06T03:03:36.307Z,13.84
2022-10-06T03:06:58.938Z,14.25
2022-10-06T03:10:47.992Z,14.49
2022-10-06T03:14:29.625Z,14.21
2022-10-06T03:18:18.677Z,14.26
2022-10-06T03:22:07.239Z,14.42
2022-10-06T03:25:34.781Z,14.82
2022-10-06T03:28:50.583Z,14.69
2022-10-06T03:32:33.186Z,14.79
2022-10-06T03:36:21.683Z,14.99
2022-10-06T03:40:07.512Z,15.60
2022-10-06T03:43:48.869Z,15.83
2022-10-06T03:47:37.698Z,16.01
2022-10-06T03:51:26.529Z,16.28
2022-10-06T03:55:15.470Z,16.27
2022-10-06T03:59:04.368Z,16.51
2022-10-06T04:02:55.829Z,16.63
2022-10-06T04:06:44.688Z,16.73
2022-10-06T04:10:28.925Z,16.90
2022-10-06T04:14:17.717Z,17.04
2022-10-06T04:18:05.163Z,17.19
2022-10-06T04:21:53.576Z,16.95
2022-10-06T04:25:41.264Z,17.21
2022-10-06T04:29:30.138Z,17.39
2022-10-06T04:33:20.053Z,17.47
2022-10-06T04:37:09.116Z,17.60
2022-10-06T04:40:43.448Z,17.75
2022-10-06T04:44:01.689Z,17.73
2022-10-06T04:47:20.982Z,17.58
2022-10-06T04:50:59.794Z,17.47
2022-10-06T04:54:49.211Z,17.44
2022-10-06T04:58:38.791Z,17.39
2022-10-06T05:02:27.833Z,17.37
2022-10-06T05:06:13.104Z,17.23
2022-10-06T05:10:02.190Z,17.02
2022-10-06T05:13:51.100Z,17.06
2022-10-06T05:16:55.756Z,16.83
2022-10-06T05:20:13.638Z,16.88
2022-10-06T05:23:40.475Z,16.86
2022-10-06T05:27:28.304Z,16.88
2022-10-06T05:31:07.904Z,16.75
2022-10-06T05:34:57.473Z,16.83
2022-10-06T05:38:41.651Z,17.31
2022-10-06T05:42:31.941Z,17.50
2022-10-06T05:46:10.298Z,17.50
2022-10-06T05:49:54.220Z,17.74
2022-10-06T05:53:43.242Z,18.13
2022-10-06T05:57:27.996Z,18.30
2022-10-06T06:00:56.566Z,18.25
2022-10-06T06:04:48.248Z,18.50
2022-10-06T06:08:32.477Z,18.69
2022-10-06T06:12:00.457Z,18.71
2022-10-06T06:15:51.148Z,18.73
2022-10-06T06:19:40.211Z,18.10
2022-10-06T06:23:20.561Z,18.08
2022-10-06T06:27:09.439Z,18.37
2022-10-06T06:30:50.755Z,18.64
2022-10-06T06:34:39.830Z,18.48
2022-10-06T06:38:29.131Z,18.61
2022-10-06T06:42:18.800Z,18.53
2022-10-06T06:46:08.856Z,18.45
2022-10-06T06:50:06.925Z,18.61
2022-10-06T06:53:55.761Z,18.70
2022-10-06T06:57:38.331Z,19.01
2022-10-06T07:01:27.368Z,19.35
2022-10-06T07:05:16.190Z,19.20
2022-10-06T07:09:04.821Z,19.13
2022-10-06T07:12:53.646Z,19.30
2022-10-06T07:16:41.353Z,19.30
2022-10-06T07:20:28.955Z,19.25
2022-10-06T07:24:16.059Z,19.29
2022-10-06T07:28:05.149Z,19.27
2022-10-06T07:31:47.404Z,19.38
2022-10-06T07:35:30.518Z,19.47
2022-10-06T07:39:20.062Z,19.66
2022-10-06T07:43:09.724Z,19.56
2022-10-06T07:46:59.664Z,19.56
2022-10-06T07:50:49.089Z,19.78
2022-10-06T07:54:38.101Z,19.84
2022-10-06T07:58:27.124Z,20.01
2022-10-06T08:02:16.174Z,20.09
2022-10-06T08:05:48.149Z,20.15
2022-10-06T08:09:32.035Z,20.46
2022-10-06T08:13:21.113Z,20.33
2022-10-06T08:17:10.391Z,20.22
2022-10-06T08:20:46.959Z,20.53
2022-10-06T08:25:01.133Z,20.61
2022-10-06T08:28:44.852Z,21.02
2022-10-06T08:32:34.360Z,21.25
2022-10-06T08:36:27.038Z,21.35
2022-10-06T08:40:22.143Z,21.32
2022-10-06T08:44:11.723Z,21.37
2022-10-06T08:48:00.863Z,21.26
2022-10-06T08:52:01.977Z,21.43
2022-10-06T08:55:53.900Z,21.21
2022-10-06T08:59:43.002Z,21.07
2022-10-06T09:03:32.571Z,21.31
2022-10-06T09:07:42.832Z,21.56
2022-10-06T09:11:47.491Z,21.46
2022-10-06T09:15:40.346Z,21.67
2022-10-06T09:19:38.710Z,21.65
2022-10-06T09:23:26.214Z,21.42
2022-10-06T09:27:15.663Z,20.97
2022-10-06T09:31:04.730Z,20.90
2022-10-06T09:35:05.888Z,20.70
2022-10-06T09:38:55.184Z,21.21
2022-10-06T09:42:44.626Z,21.63
2022-10-06T09:46:34.366Z,22.02
2022-10-06T09:50:26.547Z,22.10
2022-10-06T09:54:15.963Z,21.84
2022-10-06T09:58:17.864Z,21.64
2022-10-06T10:02:07.719Z,22.00
2022-10-06T10:05:59.521Z,22.00
2022-10-06T10:09:58.066Z,22.47
2022-10-06T10:13:59.516Z,22.64
2022-10-06T10:17:50.260Z,22.46
2022-10-06T10:21:48.462Z,22.33
2022-10-06T10:25:43.359Z,22.32
2022-10-06T10:29:47.451Z,22.66
2022-10-06T10:33:36.424Z,22.13
2022-10-06T10:37:31.856Z,22.14
2022-10-06T10:41:21.805Z,22.00
2022-10-06T10:45:20.524Z,22.00
2022-10-06T10:49:19.061Z,22.39
2022-10-06T10:53:14.212Z,22.06
2022-10-06T10:57:03.576Z,21.69
2022-10-06T11:01:01.914Z,21.71
2022-10-06T11:04:51.434Z,22.74
2022-10-06T11:08:40.568Z,23.39
2022-10-06T11:12:35.436Z,23.09
2022-10-06T11:16:27.533Z,23.10
2022-10-06T11:20:35.009Z,23.12
2022-10-06T11:24:30.138Z,23.30
2022-10-06T11:28:27.895Z,23.08
2022-10-06T11:32:22.432Z,23.20
2022-10-06T11:36:24.589Z,23.19
2022-10-06T11:40:19.844Z,22.93
2022-10-06T11:44:26.832Z,22.91
2022-10-06T11:48:16.332Z,23.00
2022-10-06T11:52:11.512Z,23.05
2022-10-06T11:56:13.304Z,23.14
2022-10-06T12:03:59.393Z,23.04
2022-10-06T12:07:47.809Z,22.95
2022-10-06T12:11:35.755Z,23.14
2022-10-06T12:19:27.312Z,23.89
2022-10-06T12:23:15.636Z,23.43
2022-10-06T12:26:42.626Z,23.57
2022-10-06T12:30:53.380Z,23.82
2022-10-06T12:34:31.869Z,23.21
2022-10-06T12:38:20.081Z,22.73
2022-10-06T12:42:10.485Z,22.78
2022-10-06T12:45:58.517Z,22.97
2022-10-06T12:49:47.306Z,23.29
2022-10-06T12:53:44.148Z,23.57
2022-10-06T12:57:41.367Z,23.65
2022-10-06T13:01:31.087Z,23.87
2022-10-06T13:05:33.747Z,23.65
2022-10-06T13:09:21.504Z,23.84
2022-10-06T13:13:24.657Z,23.75
2022-10-06T13:17:12.787Z,23.96
2022-10-06T13:21:00.448Z,23.82
2022-10-06T13:24:47.691Z,23.84
2022-10-06T13:28:28.398Z,23.89
2022-10-06T13:32:20.135Z,24.34
2022-10-06T13:36:03.259Z,24.27
2022-10-06T13:39:53.925Z,23.91
2022-10-06T13:43:41.597Z,23.21
2022-10-06T13:47:29.655Z,23.32
2022-10-06T13:51:17.275Z,23.03
2022-10-06T13:55:24.282Z,23.19
2022-10-06T13:59:15.371Z,23.25
2022-10-06T14:03:16.984Z,23.48
2022-10-06T14:07:11.074Z,23.46
2022-10-06T14:11:06.408Z,23.38
2022-10-06T14:15:01.953Z,23.75
2022-10-06T14:18:46.577Z,23.59
2022-10-06T14:22:40.962Z,23.40
2022-10-06T14:26:30.708Z,23.55
2022-10-06T14:30:21.292Z,23.55
2022-10-06T14:34:09.444Z,23.55
2022-10-06T14:38:00.297Z,23.50
2022-10-06T14:41:48.986Z,23.60
2022-10-06T14:45:27.615Z,23.91
2022-10-06T14:49:13.977Z,24.28
2022-10-06T14:53:02.079Z,23.44
2022-10-06T14:56:43.784Z,23.16
2022-10-06T15:00:32.989Z,23.06
2022-10-06T15:04:24.686Z,22.24
2022-10-06T15:07:47.555Z,22.01
2022-10-06T15:11:23.005Z,22.34
2022-10-06T15:14:36.384Z,22.12
2022-10-06T15:17:55.297Z,22.13
2022-10-06T15:21:00.474Z,21.70
2022-10-06T15:24:20.471Z,21.51
2022-10-06T15:31:33.925Z,21.08
2022-10-06T15:34:47.144Z,21.05
2022-10-06T15:38:03.737Z,21.05
2022-10-06T15:42:10.238Z,20.94
2022-10-06T15:46:38.305Z,20.97
2022-10-06T15:50:00.920Z,20.74
2022-10-06T15:53:48.841Z,20.46
2022-10-06T15:57:38.018Z,20.17
2022-10-06T16:01:09.671Z,19.95
2022-10-06T16:04:57.583Z,19.76
2022-10-06T16:08:46.208Z,20.11
2022-10-06T16:12:27.733Z,20.04
2022-10-06T16:16:16.092Z,19.84
2022-10-06T16:19:58.415Z,19.75
2022-10-06T16:23:46.953Z,19.59
2022-10-06T16:27:35.641Z,18.98
2022-10-06T16:31:24.026Z,18.83
2022-10-06T16:35:05.397Z,18.60
2022-10-06T16:38:53.963Z,18.30
2022-10-06T16:42:42.313Z,18.13
2022-10-06T16:46:20.337Z,17.89
2022-10-06T16:50:08.459Z,17.67
2022-10-06T16:53:56.686Z,17.27
2022-10-06T16:57:37.198Z,17.36
2022-10-06T17:01:25.087Z,17.48
2022-10-06T17:05:17.427Z,17.39
2022-10-06T17:09:05.257Z,16.82
2022-10-06T17:12:56.020Z,16.84
2022-10-06T17:16:44.844Z,16.72
2022-10-06T17:20:32.812Z,16.01
2022-10-06T17:24:06.272Z,16.06
2022-10-06T17:27:31.456Z,15.56
2022-10-06T17:30:51.212Z,15.02
2022-10-06T17:34:21.188Z,14.89
2022-10-06T17:38:02.578Z,14.68
2022-10-06T17:41:15.830Z,14.64
2022-10-06T17:44:32.287Z,14.51
2022-10-06T17:48:04.276Z,14.19
2022-10-06T17:51:50.847Z,14.61
2022-10-06T17:55:39.104Z,14.46
2022-10-06T17:59:32.843Z,14.46
2022-10-06T18:03:13.165Z,14.23
2022-10-06T18:06:40.650Z,14.17
2022-10-06T18:10:27.427Z,14.10
2022-10-06T18:14:16.253Z,13.70
2022-10-06T18:17:43.998Z,13.78
2022-10-06T18:20:41.457Z,13.71
2022-10-06T18:24:08.978Z,13.54
2022-10-06T18:27:40.832Z,13.13
2022-10-06T18:30:54.340Z,12.70
2022-10-06T18:38:24.909Z,12.60
2022-10-06T18:42:05.777Z,12.54
2022-10-06T18:45:52.515Z,12.40
2022-10-06T18:49:27.587Z,12.56
2022-10-06T18:52:45.228Z,12.66
2022-10-06T18:55:54.260Z,12.64
2022-10-06T18:59:43.722Z,12.60
2022-10-06T19:03:14.400Z,12.28
2022-10-06T19:07:05.153Z,12.09
2022-10-06T19:10:38.532Z,12.15
2022-10-06T19:13:57.481Z,11.84
2022-10-06T19:17:22.170Z,12.07
2022-10-06T19:20:45.388Z,12.00
2022-10-06T19:24:08.906Z,11.97
2022-10-06T19:27:49.022Z,12.05
2022-10-06T19:31:26.035Z,11.81
2022-10-06T19:34:56.103Z,11.71
2022-10-06T19:38:45.233Z,11.37
2022-10-06T19:42:18.445Z,11.34
2022-10-06T19:45:54.143Z,11.25
2022-10-06T19:49:31.396Z,11.20
2022-10-06T19:52:57.161Z,11.39
2022-10-06T19:56:25.282Z,11.33
2022-10-06T19:59:43.955Z,10.98
2022-10-06T20:03:07.108Z,10.93
2022-10-06T20:06:45.082Z,10.91
2022-10-06T20:10:26.634Z,10.67
2022-10-06T20:14:19.778Z,10.42
2022-10-06T20:18:08.267Z,10.51
2022-10-06T20:21:41.357Z,10.88
2022-10-06T20:25:12.436Z,10.53
2022-10-06T20:28:59.789Z,10.51
2022-10-06T20:32:38.534Z,10.50
2022-10-06T20:36:21.828Z,10.26
2022-10-06T20:39:38.874Z,10.28
2022-10-06T20:42:44.452Z,10.21
2022-10-06T20:46:17.967Z,9.98
2022-10-06T20:49:31.185Z,9.95
2022-10-06T20:52:42.624Z,9.77
2022-10-06T20:56:22.043Z,9.80
2022-10-06T20:59:25.482Z,9.74
2022-10-06T21:02:41.585Z,9.60
2022-10-06T21:05:42.969Z,9.46
2022-10-06T21:08:44.008Z,9.44
2022-10-06T21:11:37.248Z,9.43
2022-10-06T21:14:54.566Z,9.30
2022-10-06T21:18:13.300Z,9.23
2022-10-06T21:21:29.711Z,9.22
2022-10-06T21:25:11.031Z,9.26
2022-10-06T21:28:22.085Z,9.27
2022-10-06T21:31:23.614Z,9.24
2022-10-06T21:35:02.780Z,9.24
2022-10-06T21:38:43.337Z,9.19
2022-10-06T21:42:10.015Z,9.12
2022-10-06T21:45:24.365Z,9.09
2022-10-06T21:48:22.334Z,8.98
2022-10-06T21:51:48.870Z,8.95
2022-10-06T21:54:57.432Z,8.99
2022-10-06T21:58:45.604Z,8.96
2022-10-06T22:02:04.604Z,8.98
2022-10-06T22:05:22.004Z,8.82
2022-10-06T22:08:14.954Z,8.70
2022-10-06T22:11:43.148Z,8.55
2022-10-06T22:15:05.560Z,8.46
2022-10-06T22:18:05.263Z,8.45
2022-10-06T22:21:08.932Z,8.42
2022-10-06T22:24:14.215Z,8.41
2022-10-06T22:28:01.829Z,8.33
2022-10-06T22:31:08.170Z,8.42
2022-10-06T22:34:32.096Z,8.44
2022-10-06T22:37:30.830Z,8.46
2022-10-06T22:40:39.280Z,8.33
2022-10-06T22:43:34.561Z,8.26
2022-10-06T22:46:31.975Z,8.20
2022-10-06T22:49:19.337Z,8.30
2022-10-06T22:52:03.289Z,8.35
2022-10-06T22:54:43.420Z,8.30
2022-10-06T22:57:36.062Z,8.30
2022-10-06T23:00:26.856Z,8.31
2022-10-06T23:03:57.317Z,8.18
2022-10-06T23:07:18.478Z,8.06
2022-10-06T23:10:21.091Z,7.92
2022-10-06T23:12:53.534Z,7.98
2022-10-06T23:15:24.424Z,7.93
2022-10-06T23:18:08.032Z,8.00
2022-10-06T23:21:39.157Z,7.93
2022-10-06T23:24:29.973Z,7.87
2022-10-06T23:27:10.601Z,7.80
2022-10-06T23:29:50.619Z,7.79
2022-10-06T23:33:03.980Z,7.87
2022-10-06T23:35:42.162Z,7.86
2022-10-06T23:38:22.858Z,7.82
2022-10-06T23:41:27.526Z,7.95
2022-10-06T23:44:32.720Z,8.00
2022-10-06T23:48:03.042Z,7.99
2022-10-06T23:51:43.631Z,7.89
2022-10-06T23:55:30.038Z,7.85
2022-10-06T23:58:29.573Z,7.80
